sensor_id;sensor_type;location;lat;lon;timestamp;pressure;altitude;pressure_sealevel;temperature;humidity
16664;BME280;8445;51.270;9.434;2023-03-09T00:01:40;96917.50;;;2.43;75.03
16664;BME280;8445;51.270;9.434;2023-03-09T00:04:06;96924.38;;;2.44;74.22
16664;BME280;8445;51.270;9.434;2023-03-09T00:06:32;96916.31;;;2.47;74.95
16664;BME280;8445;51.270;9.434;2023-03-09T00:08:58;96910.97;;;2.49;74.75
16664;BME280;8445;51.270;9.434;2023-03-09T00:11:26;96910.72;;;2.52;75.34
16664;BME280;8445;51.270;9.434;2023-03-09T00:13:51;96910.72;;;2.52;75.43
16664;BME280;8445;51.270;9.434;2023-03-09T00:16:26;96904.91;;;2.48;75.16
16664;BME280;8445;51.270;9.434;2023-03-09T00:18:53;96905.66;;;2.39;74.59
16664;BME280;8445;51.270;9.434;2023-03-09T00:21:20;96903.69;;;2.31;75.04
16664;BME280;8445;51.270;9.434;2023-03-09T00:24:11;96907.50;;;2.27;75.46
16664;BME280;8445;51.270;9.434;2023-03-09T00:26:41;96913.13;;;2.22;74.94
16664;BME280;8445;51.270;9.434;2023-03-09T00:29:09;96910.50;;;2.22;74.98
16664;BME280;8445;51.270;9.434;2023-03-09T00:31:37;96906.94;;;2.24;75.36
16664;BME280;8445;51.270;9.434;2023-03-09T00:34:03;96894.47;;;2.27;75.48
16664;BME280;8445;51.270;9.434;2023-03-09T00:36:29;96897.41;;;2.34;75.71
16664;BME280;8445;51.270;9.434;2023-03-09T00:38:57;96897.97;;;2.37;75.22
16664;BME280;8445;51.270;9.434;2023-03-09T00:41:26;96896.31;;;2.36;75.23
16664;BME280;8445;51.270;9.434;2023-03-09T00:43:54;96901.28;;;2.40;74.49
16664;BME280;8445;51.270;9.434;2023-03-09T00:46:19;96897.97;;;2.37;75.01
16664;BME280;8445;51.270;9.434;2023-03-09T00:48:45;96896.19;;;2.38;75.69
16664;BME280;8445;51.270;9.434;2023-03-09T00:51:11;96898.09;;;2.36;75.14
16664;BME280;8445;51.270;9.434;2023-03-09T00:53:37;96888.50;;;2.36;74.74
16664;BME280;8445;51.270;9.434;2023-03-09T00:56:06;96897.72;;;2.41;75.34
16664;BME280;8445;51.270;9.434;2023-03-09T00:58:32;96889.66;;;2.44;74.81
16664;BME280;8445;51.270;9.434;2023-03-09T01:00:58;96887.53;;;2.37;75.26
16664;BME280;8445;51.270;9.434;2023-03-09T01:03:24;96886.44;;;2.40;75.68
16664;BME280;8445;51.270;9.434;2023-03-09T01:05:50;96880.97;;;2.43;74.97
16664;BME280;8445;51.270;9.434;2023-03-09T01:08:18;96876.97;;;2.39;75.71
16664;BME280;8445;51.270;9.434;2023-03-09T01:10:46;96880.28;;;2.41;75.46
16664;BME280;8445;51.270;9.434;2023-03-09T01:13:12;96875.19;;;2.40;75.17
16664;BME280;8445;51.270;9.434;2023-03-09T01:15:41;96861.47;;;2.37;75.10
16664;BME280;8445;51.270;9.434;2023-03-09T01:18:06;96863.38;;;2.35;75.15
16664;BME280;8445;51.270;9.434;2023-03-09T01:20:34;96852.22;;;2.33;75.13
16664;BME280;8445;51.270;9.434;2023-03-09T01:23:02;96846.56;;;2.28;75.25
16664;BME280;8445;51.270;9.434;2023-03-09T01:25:27;96832.00;;;2.26;75.56
16664;BME280;8445;51.270;9.434;2023-03-09T01:27:53;96834.38;;;2.29;75.81
16664;BME280;8445;51.270;9.434;2023-03-09T01:30:19;96831.75;;;2.29;75.30
16664;BME280;8445;51.270;9.434;2023-03-09T01:32:44;96829.25;;;2.27;75.60
16664;BME280;8445;51.270;9.434;2023-03-09T01:35:10;96818.81;;;2.27;75.39
16664;BME280;8445;51.270;9.434;2023-03-09T01:37:35;96834.47;;;2.27;75.60
16664;BME280;8445;51.270;9.434;2023-03-09T01:40:02;96825.13;;;2.25;75.10
16664;BME280;8445;51.270;9.434;2023-03-09T01:42:31;96824.44;;;2.22;75.67
16664;BME280;8445;51.270;9.434;2023-03-09T01:47:43;96832.00;;;2.26;75.71
16664;BME280;8445;51.270;9.434;2023-03-09T01:50:09;96833.66;;;2.27;75.89
16664;BME280;8445;51.270;9.434;2023-03-09T01:52:35;96832.00;;;2.26;75.76
16664;BME280;8445;51.270;9.434;2023-03-09T01:55:05;96834.22;;;2.30;75.87
16664;BME280;8445;51.270;9.434;2023-03-09T01:57:40;96838.38;;;2.33;75.99
16664;BME280;8445;51.270;9.434;2023-03-09T02:00:15;96840.03;;;2.34;76.21
16664;BME280;8445;51.270;9.434;2023-03-09T02:02:44;96838.09;;;2.36;75.72
16664;BME280;8445;51.270;9.434;2023-03-09T02:05:16;96851.84;;;2.38;75.80
16664;BME280;8445;51.270;9.434;2023-03-09T02:07:45;96848.53;;;2.36;75.62
16664;BME280;8445;51.270;9.434;2023-03-09T02:10:25;96848.00;;;2.42;75.88
16664;BME280;8445;51.270;9.434;2023-03-09T02:13:00;96845.75;;;2.49;76.01
16664;BME280;8445;51.270;9.434;2023-03-09T02:15:26;96850.56;;;2.54;76.13
16664;BME280;8445;51.270;9.434;2023-03-09T02:17:54;96845.94;;;2.57;75.86
16664;BME280;8445;51.270;9.434;2023-03-09T02:23:21;96866.66;;;2.59;75.72
16664;BME280;8445;51.270;9.434;2023-03-09T02:26:12;96863.94;;;2.60;76.03
16664;BME280;8445;51.270;9.434;2023-03-09T02:28:40;96863.94;;;2.60;76.03
16664;BME280;8445;51.270;9.434;2023-03-09T02:31:06;96867.38;;;2.61;76.00
16664;BME280;8445;51.270;9.434;2023-03-09T02:33:33;96867.09;;;2.64;76.19
16664;BME280;8445;51.270;9.434;2023-03-09T02:36:00;96866.84;;;2.67;76.49
16664;BME280;8445;51.270;9.434;2023-03-09T02:38:28;96872.63;;;2.71;75.64
16664;BME280;8445;51.270;9.434;2023-03-09T02:40:56;96867.16;;;2.74;75.83
16664;BME280;8445;51.270;9.434;2023-03-09T02:43:28;96863.59;;;2.75;76.65
16664;BME280;8445;51.270;9.434;2023-03-09T02:45:55;96843.53;;;2.75;76.41
16664;BME280;8445;51.270;9.434;2023-03-09T02:48:21;96849.03;;;2.72;76.22
16664;BME280;8445;51.270;9.434;2023-03-09T02:50:47;96855.19;;;2.71;76.63
16664;BME280;8445;51.270;9.434;2023-03-09T02:53:12;96863.84;;;2.72;76.43
16664;BME280;8445;51.270;9.434;2023-03-09T02:55:38;96869.91;;;2.72;76.23
16664;BME280;8445;51.270;9.434;2023-03-09T02:58:06;96869.91;;;2.72;76.12
16664;BME280;8445;51.270;9.434;2023-03-09T03:00:32;96871.13;;;2.68;75.66
16664;BME280;8445;51.270;9.434;2023-03-09T03:02:59;96870.28;;;2.67;75.91
16664;BME280;8445;51.270;9.434;2023-03-09T03:05:27;96866.84;;;2.67;76.43
16664;BME280;8445;51.270;9.434;2023-03-09T03:07:53;96881.09;;;2.63;75.85
16664;BME280;8445;51.270;9.434;2023-03-09T03:10:20;96898.13;;;2.57;75.44
16664;BME280;8445;51.270;9.434;2023-03-09T03:12:48;96891.94;;;2.58;75.56
16664;BME280;8445;51.270;9.434;2023-03-09T03:15:14;96897.03;;;2.60;75.76
16664;BME280;8445;51.270;9.434;2023-03-09T03:17:42;96894.31;;;2.61;76.17
16664;BME280;8445;51.270;9.434;2023-03-09T03:20:10;96908.16;;;2.62;75.79
16664;BME280;8445;51.270;9.434;2023-03-09T03:22:42;96920.97;;;2.65;76.23
16664;BME280;8445;51.270;9.434;2023-03-09T03:25:08;96914.78;;;2.66;75.99
16664;BME280;8445;51.270;9.434;2023-03-09T03:27:39;96928.53;;;2.68;75.98
16664;BME280;8445;51.270;9.434;2023-03-09T03:30:05;96934.31;;;2.72;75.74
16664;BME280;8445;51.270;9.434;2023-03-09T03:32:33;96932.41;;;2.74;76.40
16664;BME280;8445;51.270;9.434;2023-03-09T03:34:58;96947.13;;;2.75;76.79
16664;BME280;8445;51.270;9.434;2023-03-09T03:37:24;96947.81;;;2.77;76.27
16664;BME280;8445;51.270;9.434;2023-03-09T03:39:50;96953.88;;;2.77;76.17
16664;BME280;8445;51.270;9.434;2023-03-09T03:42:16;96961.56;;;2.79;76.13
16664;BME280;8445;51.270;9.434;2023-03-09T03:44:42;96965.84;;;2.80;76.20
16664;BME280;8445;51.270;9.434;2023-03-09T03:47:09;96974.25;;;2.84;76.16
16664;BME280;8445;51.270;9.434;2023-03-09T03:49:35;96971.66;;;2.84;76.39
16664;BME280;8445;51.270;9.434;2023-03-09T03:52:04;96971.41;;;2.87;76.30
16664;BME280;8445;51.270;9.434;2023-03-09T03:54:29;96975.66;;;2.88;76.79
16664;BME280;8445;51.270;9.434;2023-03-09T03:56:57;96979.22;;;2.87;76.37
16664;BME280;8445;51.270;9.434;2023-03-09T03:59:22;96976.88;;;2.84;76.02
16664;BME280;8445;51.270;9.434;2023-03-09T04:01:48;96982.34;;;2.80;76.38
16664;BME280;8445;51.270;9.434;2023-03-09T04:04:14;96993.03;;;2.77;76.16
16664;BME280;8445;51.270;9.434;2023-03-09T04:06:45;96995.22;;;2.72;76.13
16664;BME280;8445;51.270;9.434;2023-03-09T04:09:14;96991.91;;;2.70;75.79
16664;BME280;8445;51.270;9.434;2023-03-09T04:11:40;97000.44;;;2.72;75.96
16664;BME280;8445;51.270;9.434;2023-03-09T04:14:07;97012.53;;;2.73;75.79
16664;BME280;8445;51.270;9.434;2023-03-09T04:16:32;97014.44;;;2.71;75.75
16664;BME280;8445;51.270;9.434;2023-03-09T04:19:00;97013.47;;;2.72;76.03
16664;BME280;8445;51.270;9.434;2023-03-09T04:21:25;97027.25;;;2.74;76.11
16664;BME280;8445;51.270;9.434;2023-03-09T04:23:51;97029.16;;;2.72;75.84
16664;BME280;8445;51.270;9.434;2023-03-09T04:26:17;97030.09;;;2.71;76.17
16664;BME280;8445;51.270;9.434;2023-03-09T04:28:53;97029.97;;;2.73;76.36
16664;BME280;8445;51.270;9.434;2023-03-09T04:31:20;97036.72;;;2.75;76.51
16664;BME280;8445;51.270;9.434;2023-03-09T04:33:45;97053.91;;;2.78;76.43
16664;BME280;8445;51.270;9.434;2023-03-09T04:36:14;97052.72;;;2.82;76.54
16664;BME280;8445;51.270;9.434;2023-03-09T04:38:42;97066.47;;;2.84;76.69
16664;BME280;8445;51.270;9.434;2023-03-09T04:41:10;97074.19;;;2.86;76.65
16664;BME280;8445;51.270;9.434;2023-03-09T04:43:37;97079.16;;;2.89;76.54
16664;BME280;8445;51.270;9.434;2023-03-09T04:46:04;97080.81;;;2.90;76.25
16664;BME280;8445;51.270;9.434;2023-03-09T04:48:30;97079.16;;;2.89;76.17
16664;BME280;8445;51.270;9.434;2023-03-09T04:50:56;97080.94;;;2.88;75.97
16664;BME280;8445;51.270;9.434;2023-03-09T04:53:22;97068.81;;;2.87;77.31
16664;BME280;8445;51.270;9.434;2023-03-09T04:55:48;97077.25;;;2.91;77.30
16664;BME280;8445;51.270;9.434;2023-03-09T04:58:16;97074.50;;;2.92;76.92
16664;BME280;8445;51.270;9.434;2023-03-09T05:00:41;97078.91;;;2.92;76.54
16664;BME280;8445;51.270;9.434;2023-03-09T05:03:09;97083.53;;;2.88;75.69
16664;BME280;8445;51.270;9.434;2023-03-09T05:05:42;97100.06;;;2.89;76.41
16664;BME280;8445;51.270;9.434;2023-03-09T05:08:08;97106.09;;;2.89;76.50
16664;BME280;8445;51.270;9.434;2023-03-09T05:10:34;97120.00;;;2.90;76.08
16664;BME280;8445;51.270;9.434;2023-03-09T05:13:00;97125.91;;;2.92;76.54
16664;BME280;8445;51.270;9.434;2023-03-09T05:15:27;97134.81;;;2.89;75.82
16664;BME280;8445;51.270;9.434;2023-03-09T05:17:53;97139.22;;;2.89;76.86
16664;BME280;8445;51.270;9.434;2023-03-09T05:20:19;97136.63;;;2.89;77.48
16664;BME280;8445;51.270;9.434;2023-03-09T05:22:53;97145.00;;;2.92;76.72
16664;BME280;8445;51.270;9.434;2023-03-09T05:25:22;97151.09;;;2.93;76.92
16664;BME280;8445;51.270;9.434;2023-03-09T05:27:48;97158.06;;;2.92;77.44
16664;BME280;8445;51.270;9.434;2023-03-09T05:30:15;97153.81;;;2.91;77.57
16664;BME280;8445;51.270;9.434;2023-03-09T05:32:40;97163.28;;;2.92;77.17
16664;BME280;8445;51.270;9.434;2023-03-09T05:35:09;97153.69;;;2.93;77.71
16664;BME280;8445;51.270;9.434;2023-03-09T05:37:35;97152.75;;;2.94;77.33
16664;BME280;8445;51.270;9.434;2023-03-09T05:40:12;97161.38;;;2.94;77.19
16664;BME280;8445;51.270;9.434;2023-03-09T05:42:40;97160.31;;;2.97;76.23
16664;BME280;8445;51.270;9.434;2023-03-09T05:45:07;97165.81;;;2.94;76.74
16664;BME280;8445;51.270;9.434;2023-03-09T05:47:37;97172.78;;;2.93;76.63
16664;BME280;8445;51.270;9.434;2023-03-09T05:50:06;97170.75;;;2.97;76.48
16664;BME280;8445;51.270;9.434;2023-03-09T05:52:34;97181.19;;;2.97;76.75
16664;BME280;8445;51.270;9.434;2023-03-09T05:55:00;97183.69;;;2.99;76.72
16664;BME280;8445;51.270;9.434;2023-03-09T05:57:27;97186.41;;;2.97;76.41
16664;BME280;8445;51.270;9.434;2023-03-09T05:59:53;97184.75;;;2.96;76.69
16664;BME280;8445;51.270;9.434;2023-03-09T06:02:19;97193.31;;;2.98;76.67
16664;BME280;8445;51.270;9.434;2023-03-09T06:04:49;97212.28;;;3.00;76.70
16664;BME280;8445;51.270;9.434;2023-03-09T06:07:19;97217.28;;;3.03;76.38
16664;BME280;8445;51.270;9.434;2023-03-09T06:09:48;97224.06;;;3.06;76.90
16664;BME280;8445;51.270;9.434;2023-03-09T06:12:19;97219.63;;;3.06;76.89
16664;BME280;8445;51.270;9.434;2023-03-09T06:14:48;97228.19;;;3.08;77.01
16664;BME280;8445;51.270;9.434;2023-03-09T06:17:15;97228.66;;;3.14;77.25
16664;BME280;8445;51.270;9.434;2023-03-09T06:19:43;97230.06;;;3.18;77.23
16664;BME280;8445;51.270;9.434;2023-03-09T06:22:09;97242.19;;;3.19;76.87
16664;BME280;8445;51.270;9.434;2023-03-09T06:24:36;97242.06;;;3.20;77.43
16664;BME280;8445;51.270;9.434;2023-03-09T06:27:04;97249.78;;;3.22;77.33
16664;BME280;8445;51.270;9.434;2023-03-09T06:29:35;97245.72;;;3.29;77.29
16664;BME280;8445;51.270;9.434;2023-03-09T06:32:01;97258.28;;;3.35;76.78
16664;BME280;8445;51.270;9.434;2023-03-09T06:34:29;97252.81;;;3.38;77.01
16664;BME280;8445;51.270;9.434;2023-03-09T06:36:56;97253.38;;;3.42;76.84
16664;BME280;8445;51.270;9.434;2023-03-09T06:39:21;97269.91;;;3.43;77.25
16664;BME280;8445;51.270;9.434;2023-03-09T06:41:47;97264.78;;;3.41;76.46
16664;BME280;8445;51.270;9.434;2023-03-09T06:44:36;97265.50;;;3.43;77.12
16664;BME280;8445;51.270;9.434;2023-03-09T06:47:02;97271.31;;;3.47;77.14
16664;BME280;8445;51.270;9.434;2023-03-09T06:49:28;97271.91;;;3.50;77.19
16664;BME280;8445;51.270;9.434;2023-03-09T06:51:56;97271.25;;;3.58;77.25
16664;BME280;8445;51.270;9.434;2023-03-09T06:54:23;97270.06;;;3.62;77.76
16664;BME280;8445;51.270;9.434;2023-03-09T06:56:56;97280.06;;;3.57;77.68
16664;BME280;8445;51.270;9.434;2023-03-09T06:59:22;97299.31;;;3.56;77.77
16664;BME280;8445;51.270;9.434;2023-03-09T07:01:47;97298.34;;;3.57;78.41
16664;BME280;8445;51.270;9.434;2023-03-09T07:04:13;97296.69;;;3.56;78.62
16664;BME280;8445;51.270;9.434;2023-03-09T07:06:40;97298.13;;;3.60;78.46
16664;BME280;8445;51.270;9.434;2023-03-09T07:09:05;97317.25;;;3.61;78.62
16664;BME280;8445;51.270;9.434;2023-03-09T07:11:31;97322.03;;;3.55;78.51
16664;BME280;8445;51.270;9.434;2023-03-09T07:13:56;97328.84;;;3.47;79.28
16664;BME280;8445;51.270;9.434;2023-03-09T07:16:22;97330.75;;;3.45;79.41
16664;BME280;8445;51.270;9.434;2023-03-09T07:18:48;97330.97;;;3.53;79.14
16664;BME280;8445;51.270;9.434;2023-03-09T07:21:14;97336.84;;;3.66;78.78
16664;BME280;8445;51.270;9.434;2023-03-09T07:23:39;97334.44;;;3.75;78.72
16664;BME280;8445;51.270;9.434;2023-03-09T07:26:05;97345.34;;;3.80;78.25
16664;BME280;8445;51.270;9.434;2023-03-09T07:28:31;97347.88;;;3.81;77.82
16664;BME280;8445;51.270;9.434;2023-03-09T07:30:57;97357.00;;;3.87;78.03
16664;BME280;8445;51.270;9.434;2023-03-09T07:33:23;97357.00;;;3.87;77.89
16664;BME280;8445;51.270;9.434;2023-03-09T07:35:49;97361.97;;;3.90;77.56
16664;BME280;8445;51.270;9.434;2023-03-09T07:38:14;97357.44;;;3.92;77.61
16664;BME280;8445;51.270;9.434;2023-03-09T07:40:40;97362.28;;;3.97;77.49
16664;BME280;8445;51.270;9.434;2023-03-09T07:43:06;97372.50;;;4.00;77.46
16664;BME280;8445;51.270;9.434;2023-03-09T07:45:50;97375.34;;;4.08;77.69
16664;BME280;8445;51.270;9.434;2023-03-09T07:48:15;97382.44;;;4.18;77.94
16664;BME280;8445;51.270;9.434;2023-03-09T07:50:42;97388.38;;;4.20;77.69
16664;BME280;8445;51.270;9.434;2023-03-09T07:53:08;97391.94;;;4.19;77.23
16664;BME280;8445;51.270;9.434;2023-03-09T07:55:34;97400.16;;;4.14;77.30
16664;BME280;8445;51.270;9.434;2023-03-09T07:58:01;97404.72;;;4.12;77.51
16664;BME280;8445;51.270;9.434;2023-03-09T08:00:27;97407.50;;;4.20;78.13
16664;BME280;8445;51.270;9.434;2023-03-09T08:02:54;97409.47;;;4.39;78.57
16664;BME280;8445;51.270;9.434;2023-03-09T08:05:20;97408.19;;;4.55;78.77
16664;BME280;8445;51.270;9.434;2023-03-09T08:07:46;97409.22;;;4.64;78.18
16664;BME280;8445;51.270;9.434;2023-03-09T08:10:16;97411.59;;;4.67;78.29
16664;BME280;8445;51.270;9.434;2023-03-09T08:12:42;97426.84;;;4.83;78.82
16664;BME280;8445;51.270;9.434;2023-03-09T08:15:09;97415.34;;;4.95;78.49
16664;BME280;8445;51.270;9.434;2023-03-09T08:17:35;97409.22;;;5.16;79.02
16664;BME280;8445;51.270;9.434;2023-03-09T08:20:02;97419.91;;;5.34;78.77
16664;BME280;8445;51.270;9.434;2023-03-09T08:22:30;97414.75;;;5.54;78.92
16664;BME280;8445;51.270;9.434;2023-03-09T08:24:56;97421.19;;;5.81;79.02
16664;BME280;8445;51.270;9.434;2023-03-09T08:27:21;97415.00;;;6.01;78.50
16664;BME280;8445;51.270;9.434;2023-03-09T08:29:47;97413.38;;;6.20;78.33
16664;BME280;8445;51.270;9.434;2023-03-09T08:32:12;97408.53;;;6.45;78.99
16664;BME280;8445;51.270;9.434;2023-03-09T08:34:38;97412.06;;;6.83;79.23
16664;BME280;8445;51.270;9.434;2023-03-09T08:37:03;97415.38;;;7.33;80.33
16664;BME280;8445;51.270;9.434;2023-03-09T08:39:29;97416.94;;;7.81;81.27
16664;BME280;8445;51.270;9.434;2023-03-09T08:41:57;97423.38;;;8.15;80.09
16664;BME280;8445;51.270;9.434;2023-03-09T08:44:23;97420.44;;;8.36;79.69
16664;BME280;8445;51.270;9.434;2023-03-09T08:46:48;97423.81;;;8.46;79.38
16664;BME280;8445;51.270;9.434;2023-03-09T08:49:14;97424.22;;;8.52;78.79
16664;BME280;8445;51.270;9.434;2023-03-09T08:51:39;97425.78;;;8.63;78.61
16664;BME280;8445;51.270;9.434;2023-03-09T08:54:04;97422.38;;;8.88;78.37
16664;BME280;8445;51.270;9.434;2023-03-09T08:56:33;97427.78;;;9.13;79.07
16664;BME280;8445;51.270;9.434;2023-03-09T08:58:58;97444.28;;;9.42;79.17
16664;BME280;8445;51.270;9.434;2023-03-09T09:01:24;97445.53;;;9.64;78.46
16664;BME280;8445;51.270;9.434;2023-03-09T09:03:49;97447.41;;;9.80;78.81
16664;BME280;8445;51.270;9.434;2023-03-09T09:06:16;97446.81;;;9.94;79.21
16664;BME280;8445;51.270;9.434;2023-03-09T09:08:43;97447.19;;;10.16;78.62
16664;BME280;8445;51.270;9.434;2023-03-09T09:11:12;97451.22;;;10.45;79.81
16664;BME280;8445;51.270;9.434;2023-03-09T09:13:38;97455.19;;;10.66;78.30
16664;BME280;8445;51.270;9.434;2023-03-09T09:16:07;97448.59;;;10.78;76.25
16664;BME280;8445;51.270;9.434;2023-03-09T09:18:33;97453.88;;;10.78;76.26
16664;BME280;8445;51.270;9.434;2023-03-09T09:21:03;97464.78;;;10.75;76.20
16664;BME280;8445;51.270;9.434;2023-03-09T09:23:32;97447.28;;;10.58;75.21
16664;BME280;8445;51.270;9.434;2023-03-09T09:26:03;97456.22;;;10.57;74.91
16664;BME280;8445;51.270;9.434;2023-03-09T09:28:36;97458.03;;;10.81;76.40
16664;BME280;8445;51.270;9.434;2023-03-09T09:31:03;97472.88;;;11.07;77.82
16664;BME280;8445;51.270;9.434;2023-03-09T09:33:33;97470.38;;;11.22;76.04
16664;BME280;8445;51.270;9.434;2023-03-09T09:36:05;97471.16;;;11.47;76.09
16664;BME280;8445;51.270;9.434;2023-03-09T09:38:37;97477.91;;;11.58;76.74
16664;BME280;8445;51.270;9.434;2023-03-09T09:41:07;97480.94;;;11.38;74.58
16664;BME280;8445;51.270;9.434;2023-03-09T09:43:41;97470.88;;;11.17;74.78
16664;BME280;8445;51.270;9.434;2023-03-09T09:46:11;97478.81;;;11.09;74.85
16664;BME280;8445;51.270;9.434;2023-03-09T09:48:42;97480.66;;;10.83;76.12
16664;BME280;8445;51.270;9.434;2023-03-09T09:54:23;97488.56;;;10.42;74.75
16664;BME280;8445;51.270;9.434;2023-03-09T09:56:58;97489.56;;;10.41;77.75
16664;BME280;8445;51.270;9.434;2023-03-09T09:59:40;97488.06;;;10.47;78.37
16664;BME280;8445;51.270;9.434;2023-03-09T10:04:45;97497.09;;;10.36;77.69
16664;BME280;8445;51.270;9.434;2023-03-09T10:07:16;97499.41;;;10.31;77.36
16664;BME280;8445;51.270;9.434;2023-03-09T10:10:03;97500.88;;;10.25;76.70
16664;BME280;8445;51.270;9.434;2023-03-09T10:12:29;97501.13;;;10.48;77.89
16664;BME280;8445;51.270;9.434;2023-03-09T10:15:09;97509.56;;;10.60;77.76
16664;BME280;8445;51.270;9.434;2023-03-09T10:17:51;97502.44;;;10.61;76.76
16664;BME280;8445;51.270;9.434;2023-03-09T10:23:01;97517.63;;;10.42;75.61
16664;BME280;8445;51.270;9.434;2023-03-09T10:25:37;97527.94;;;10.19;75.53
16664;BME280;8445;51.270;9.434;2023-03-09T10:28:10;97524.69;;;9.90;75.57
16664;BME280;8445;51.270;9.434;2023-03-09T10:36:17;97533.56;;;10.16;74.84
16664;BME280;8445;51.270;9.434;2023-03-09T10:38:45;97542.31;;;10.24;75.89
16664;BME280;8445;51.270;9.434;2023-03-09T10:41:18;97557.91;;;10.01;76.06
16664;BME280;8445;51.270;9.434;2023-03-09T10:43:44;97553.59;;;9.92;75.81
16664;BME280;8445;51.270;9.434;2023-03-09T10:46:21;97558.69;;;9.85;74.21
16664;BME280;8445;51.270;9.434;2023-03-09T10:48:49;97559.94;;;9.73;75.44
16664;BME280;8445;51.270;9.434;2023-03-09T10:51:44;97565.81;;;9.67;74.50
16664;BME280;8445;51.270;9.434;2023-03-09T10:54:23;97568.94;;;9.36;73.87
16664;BME280;8445;51.270;9.434;2023-03-09T10:56:50;97560.50;;;9.14;74.41
16664;BME280;8445;51.270;9.434;2023-03-09T10:59:22;97562.31;;;9.13;74.92
16664;BME280;8445;51.270;9.434;2023-03-09T11:01:50;97569.56;;;8.93;75.35
16664;BME280;8445;51.270;9.434;2023-03-09T11:06:56;97566.19;;;8.83;76.45
16664;BME280;8445;51.270;9.434;2023-03-09T11:09:29;97565.50;;;8.99;77.13
16664;BME280;8445;51.270;9.434;2023-03-09T11:12:18;97568.81;;;9.01;76.08
16664;BME280;8445;51.270;9.434;2023-03-09T11:14:50;97574.78;;;9.03;75.85
16664;BME280;8445;51.270;9.434;2023-03-09T11:17:36;97576.19;;;8.97;75.02
16664;BME280;8445;51.270;9.434;2023-03-09T11:22:45;97586.13;;;8.85;75.24
16664;BME280;8445;51.270;9.434;2023-03-09T11:25:16;97591.72;;;8.82;75.01
16664;BME280;8445;51.270;9.434;2023-03-09T11:27:51;97596.53;;;8.87;74.82
16664;BME280;8445;51.270;9.434;2023-03-09T11:30:20;97601.19;;;8.93;74.38
16664;BME280;8445;51.270;9.434;2023-03-09T11:32:48;97598.66;;;8.83;74.16
16664;BME280;8445;51.270;9.434;2023-03-09T11:35:15;97603.06;;;8.65;73.76
16664;BME280;8445;51.270;9.434;2023-03-09T11:37:45;97593.72;;;8.52;73.93
16664;BME280;8445;51.270;9.434;2023-03-09T11:40:15;97599.31;;;8.67;74.72
16664;BME280;8445;51.270;9.434;2023-03-09T11:42:55;97596.38;;;8.88;74.42
16664;BME280;8445;51.270;9.434;2023-03-09T11:45:26;97600.69;;;9.08;74.43
16664;BME280;8445;51.270;9.434;2023-03-09T11:51:52;97610.56;;;9.05;72.92
16664;BME280;8445;51.270;9.434;2023-03-09T11:56:54;97614.09;;;8.96;73.46
16664;BME280;8445;51.270;9.434;2023-03-09T11:59:36;97616.59;;;8.80;73.10
16664;BME280;8445;51.270;9.434;2023-03-09T12:02:28;97620.19;;;8.79;73.12
16664;BME280;8445;51.270;9.434;2023-03-09T12:04:57;97622.75;;;8.70;73.39
16664;BME280;8445;51.270;9.434;2023-03-09T12:07:28;97632.69;;;8.77;72.78
16664;BME280;8445;51.270;9.434;2023-03-09T12:12:51;97623.34;;;8.82;73.07
16664;BME280;8445;51.270;9.434;2023-03-09T12:18:20;97626.06;;;8.72;72.52
16664;BME280;8445;51.270;9.434;2023-03-09T12:21:07;97625.09;;;8.73;71.04
16664;BME280;8445;51.270;9.434;2023-03-09T12:26:19;97627.56;;;8.47;72.99
16664;BME280;8445;51.270;9.434;2023-03-09T12:29:03;97632.81;;;8.57;74.75
16664;BME280;8445;51.270;9.434;2023-03-09T12:31:33;97633.72;;;8.66;75.21
16664;BME280;8445;51.270;9.434;2023-03-09T12:36:27;97638.50;;;9.16;75.24
16664;BME280;8445;51.270;9.434;2023-03-09T12:42:24;97643.97;;;9.59;73.62
16664;BME280;8445;51.270;9.434;2023-03-09T12:49:59;97650.97;;;9.24;73.27
16664;BME280;8445;51.270;9.434;2023-03-09T12:55:28;97662.00;;;8.73;72.57
16664;BME280;8445;51.270;9.434;2023-03-09T13:01:02;97654.19;;;8.06;73.04
16664;BME280;8445;51.270;9.434;2023-03-09T13:03:48;97645.78;;;7.93;73.02
16664;BME280;8445;51.270;9.434;2023-03-09T13:08:51;97646.31;;;8.06;73.55
16664;BME280;8445;51.270;9.434;2023-03-09T13:13:54;97655.50;;;7.92;73.82
16664;BME280;8445;51.270;9.434;2023-03-09T13:27:09;97681.84;;;7.72;74.68
16664;BME280;8445;51.270;9.434;2023-03-09T13:29:56;97679.78;;;7.56;74.12
16664;BME280;8445;51.270;9.434;2023-03-09T13:32:24;97680.47;;;7.39;73.94
16664;BME280;8445;51.270;9.434;2023-03-09T13:34:54;97673.16;;;7.23;73.81
16664;BME280;8445;51.270;9.434;2023-03-09T13:37:28;97676.44;;;7.05;73.71
16664;BME280;8445;51.270;9.434;2023-03-09T13:40:00;97676.28;;;6.97;73.94
16664;BME280;8445;51.270;9.434;2023-03-09T13:42:27;97668.41;;;6.87;73.08
16664;BME280;8445;51.270;9.434;2023-03-09T13:44:53;97673.06;;;6.74;73.54
16664;BME280;8445;51.270;9.434;2023-03-09T13:47:37;97666.84;;;6.75;73.62
16664;BME280;8445;51.270;9.434;2023-03-09T13:50:03;97663.94;;;6.78;73.72
16664;BME280;8445;51.270;9.434;2023-03-09T13:52:29;97664.81;;;6.88;73.68
16664;BME280;8445;51.270;9.434;2023-03-09T13:54:59;97663.03;;;6.99;73.76
16664;BME280;8445;51.270;9.434;2023-03-09T13:57:33;97662.59;;;7.03;73.10
16664;BME280;8445;51.270;9.434;2023-03-09T14:00:23;97666.63;;;6.97;73.16
16664;BME280;8445;51.270;9.434;2023-03-09T14:02:52;97661.91;;;6.91;73.25
16664;BME280;8445;51.270;9.434;2023-03-09T14:05:20;97659.28;;;6.91;72.90
16664;BME280;8445;51.270;9.434;2023-03-09T14:07:50;97660.25;;;6.90;73.02
16664;BME280;8445;51.270;9.434;2023-03-09T14:10:31;97652.75;;;6.86;72.99
16664;BME280;8445;51.270;9.434;2023-03-09T14:13:32;97659.13;;;6.83;72.61
16664;BME280;8445;51.270;9.434;2023-03-09T14:16:02;97663.69;;;6.81;73.10
16664;BME280;8445;51.270;9.434;2023-03-09T14:18:45;97655.53;;;6.84;72.88
16664;BME280;8445;51.270;9.434;2023-03-09T14:23:44;97654.56;;;6.85;72.09
16664;BME280;8445;51.270;9.434;2023-03-09T14:26:10;97651.06;;;6.75;72.21
16664;BME280;8445;51.270;9.434;2023-03-09T14:28:41;97642.91;;;6.68;72.26
16664;BME280;8445;51.270;9.434;2023-03-09T14:31:22;97641.38;;;6.65;72.13
16664;BME280;8445;51.270;9.434;2023-03-09T14:34:03;97635.31;;;6.75;72.53
16664;BME280;8445;51.270;9.434;2023-03-09T14:36:44;97644.44;;;6.80;72.39
16664;BME280;8445;51.270;9.434;2023-03-09T14:39:32;97644.75;;;6.87;72.72
16664;BME280;8445;51.270;9.434;2023-03-09T14:42:14;97640.59;;;6.94;72.31
16664;BME280;8445;51.270;9.434;2023-03-09T14:44:58;97636.31;;;6.93;72.51
16664;BME280;8445;51.270;9.434;2023-03-09T14:47:44;97642.69;;;7.10;73.00